createdAt,value
2023-10-21T00:00:07.821Z,11.50
2023-10-21T00:02:34.742Z,11.40
2023-10-21T00:05:01.640Z,11.30
2023-10-21T00:07:28.479Z,11.30
2023-10-21T00:09:55.382Z,11.20
2023-10-21T00:12:22.230Z,11.20
2023-10-21T00:14:49.043Z,11.20
2023-10-21T00:17:15.846Z,11.20
2023-10-21T00:19:42.696Z,11.10
2023-10-21T00:22:09.632Z,11.10
2023-10-21T00:24:36.463Z,11.10
2023-10-21T00:27:03.451Z,11.00
2023-10-21T00:29:30.288Z,11.00
2023-10-21T00:31:57.344Z,11.00
2023-10-21T00:34:24.245Z,10.90
2023-10-21T00:36:51.063Z,10.90
2023-10-21T00:39:17.957Z,10.80
2023-10-21T00:41:44.851Z,10.80
2023-10-21T00:44:12.093Z,10.80
2023-10-21T00:46:39.614Z,10.70
2023-10-21T00:49:06.903Z,10.70
2023-10-21T00:51:35.022Z,10.60
2023-10-21T00:54:02.656Z,10.60
2023-10-21T00:56:29.669Z,10.50
2023-10-21T00:58:56.957Z,10.50
2023-10-21T01:01:23.972Z,10.50
2023-10-21T01:03:51.362Z,10.50
2023-10-21T01:06:18.407Z,10.40
2023-10-21T01:08:49.444Z,10.30
2023-10-21T01:11:17.437Z,10.20
2023-10-21T01:13:44.927Z,10.20
2023-10-21T01:16:12.096Z,10.20
2023-10-21T01:18:41.132Z,10.20
2023-10-21T01:21:08.175Z,10.20
2023-10-21T01:23:35.470Z,10.20
2023-10-21T01:26:03.901Z,10.20
2023-10-21T01:28:30.769Z,10.20
2023-10-21T01:30:58.137Z,10.20
2023-10-21T01:33:25.128Z,10.20
2023-10-21T01:35:52.189Z,10.10
2023-10-21T01:38:22.490Z,10.20
2023-10-21T01:40:50.994Z,10.10
2023-10-21T01:43:18.068Z,10.10
2023-10-21T01:45:44.994Z,10.20
2023-10-21T01:48:11.908Z,10.20
2023-10-21T01:50:39.192Z,10.30
2023-10-21T01:53:06.395Z,10.30
2023-10-21T01:55:34.868Z,10.30
2023-10-21T01:58:01.770Z,10.30
2023-10-21T02:00:28.908Z,10.30
2023-10-21T02:02:57.813Z,10.30
2023-10-21T02:05:26.368Z,10.40
2023-10-21T02:07:53.629Z,10.40
2023-10-21T02:10:20.737Z,10.40
2023-10-21T02:12:48.017Z,10.40
2023-10-21T02:15:17.678Z,10.50
2023-10-21T02:17:46.392Z,10.50
2023-10-21T02:20:15.840Z,10.50
2023-10-21T02:22:43.741Z,10.50
2023-10-21T02:25:14.706Z,10.50
2023-10-21T02:27:42.637Z,10.60
2023-10-21T02:30:16.549Z,10.60
2023-10-21T02:32:46.291Z,10.60
2023-10-21T02:35:14.227Z,10.70
2023-10-21T02:37:41.883Z,10.70
2023-10-21T02:40:10.420Z,10.80
2023-10-21T02:42:38.744Z,10.90
2023-10-21T02:45:06.618Z,10.90
2023-10-21T02:47:33.551Z,10.90
2023-10-21T02:50:00.680Z,11.00
2023-10-21T02:52:28.173Z,11.00
2023-10-21T02:54:55.014Z,11.10
2023-10-21T02:57:21.936Z,11.10
2023-10-21T02:59:48.878Z,11.10
2023-10-21T03:02:16.351Z,11.10
2023-10-21T03:04:43.334Z,11.10
2023-10-21T03:07:10.164Z,11.20
2023-10-21T03:09:37.250Z,11.20
2023-10-21T03:12:04.870Z,11.20
2023-10-21T03:14:32.077Z,11.20
2023-10-21T03:16:58.933Z,11.10
2023-10-21T03:19:25.789Z,11.20
2023-10-21T03:21:52.599Z,11.20
2023-10-21T03:24:19.474Z,11.20
2023-10-21T03:26:47.112Z,11.30
2023-10-21T03:29:14.661Z,11.30
2023-10-21T03:31:41.611Z,11.30
2023-10-21T03:34:08.504Z,11.40
2023-10-21T03:36:35.564Z,11.40
2023-10-21T03:39:02.657Z,11.40
2023-10-21T03:41:29.531Z,11.50
2023-10-21T03:43:56.339Z,11.40
2023-10-21T03:46:23.281Z,11.50
2023-10-21T03:48:50.276Z,11.50
2023-10-21T03:51:17.508Z,11.50
2023-10-21T03:53:44.800Z,11.60
2023-10-21T03:56:12.070Z,11.50
2023-10-21T03:58:41.007Z,11.50
2023-10-21T04:01:08.891Z,11.60
2023-10-21T04:03:36.959Z,11.60
2023-10-21T04:06:04.608Z,11.60
2023-10-21T04:08:32.035Z,11.60
2023-10-21T04:10:59.019Z,11.60
2023-10-21T04:13:26.265Z,11.60
2023-10-21T04:15:53.735Z,11.60
2023-10-21T04:18:20.676Z,11.60
2023-10-21T04:20:47.970Z,11.60
2023-10-21T04:23:15.269Z,11.60
2023-10-21T04:25:42.387Z,11.60
2023-10-21T04:28:09.168Z,11.60
2023-10-21T04:30:36.506Z,11.70
2023-10-21T04:33:05.013Z,11.60
2023-10-21T04:35:33.222Z,11.60
2023-10-21T04:38:00.691Z,11.60
2023-10-21T04:40:28.374Z,11.60
2023-10-21T04:42:55.208Z,11.60
2023-10-21T04:45:22.238Z,11.60
2023-10-21T04:47:49.543Z,11.60
2023-10-21T04:50:16.594Z,11.60
2023-10-21T04:52:44.450Z,11.60
2023-10-21T04:55:11.355Z,11.60
2023-10-21T04:57:38.494Z,11.60
2023-10-21T05:00:09.326Z,11.60
2023-10-21T05:02:36.238Z,11.60
2023-10-21T05:05:03.247Z,11.60
2023-10-21T05:07:30.095Z,11.60
2023-10-21T05:09:56.880Z,11.70
2023-10-21T05:12:24.056Z,11.60
2023-10-21T05:14:51.324Z,11.60
2023-10-21T05:17:18.419Z,11.70
2023-10-21T05:19:45.840Z,11.70
2023-10-21T05:22:14.108Z,11.70
2023-10-21T05:24:40.955Z,11.80
2023-10-21T05:27:08.027Z,11.80
2023-10-21T05:29:34.930Z,11.80
2023-10-21T05:32:02.644Z,11.80
2023-10-21T05:34:29.586Z,11.80
2023-10-21T05:36:56.463Z,11.80
2023-10-21T05:39:23.879Z,11.80
2023-10-21T05:41:50.816Z,11.90
2023-10-21T05:44:17.752Z,11.90
2023-10-21T05:46:45.215Z,11.90
2023-10-21T05:49:12.230Z,11.80
2023-10-21T05:51:39.078Z,11.90
2023-10-21T05:54:06.179Z,11.90
2023-10-21T05:56:33.209Z,12.00
2023-10-21T05:59:00.069Z,12.00
2023-10-21T06:01:27.961Z,12.00
2023-10-21T06:03:54.906Z,12.00
2023-10-21T06:06:23.330Z,12.00
2023-10-21T06:08:50.409Z,12.10
2023-10-21T06:11:17.434Z,12.10
2023-10-21T06:13:44.397Z,12.10
2023-10-21T06:16:11.217Z,12.10
2023-10-21T06:18:38.091Z,12.10
2023-10-21T06:21:05.878Z,12.20
2023-10-21T06:23:33.026Z,12.20
2023-10-21T06:26:00.160Z,12.20
2023-10-21T06:28:27.037Z,12.20
2023-10-21T06:30:53.952Z,12.30
2023-10-21T06:33:20.988Z,12.30
2023-10-21T06:35:48.688Z,12.30
2023-10-21T06:38:16.060Z,12.40
2023-10-21T06:40:55.657Z,12.40
2023-10-21T06:43:29.516Z,12.40
2023-10-21T06:45:56.380Z,12.50
2023-10-21T06:48:23.328Z,12.50
2023-10-21T06:50:50.442Z,12.50
2023-10-21T06:53:17.550Z,12.50
2023-10-21T06:55:45.828Z,12.60
2023-10-21T06:58:13.560Z,12.60
2023-10-21T07:00:40.918Z,12.60
2023-10-21T07:03:08.981Z,12.70
2023-10-21T07:05:36.645Z,12.70
2023-10-21T07:08:05.291Z,12.70
2023-10-21T07:10:32.698Z,12.80
2023-10-21T07:13:00.519Z,12.80
2023-10-21T07:15:34.381Z,12.90
2023-10-21T07:18:01.484Z,13.00
2023-10-21T07:20:28.527Z,13.10
2023-10-21T07:22:55.794Z,13.10
2023-10-21T07:25:24.936Z,13.20
2023-10-21T07:27:52.160Z,13.20
2023-10-21T07:30:20.360Z,13.40
2023-10-21T07:32:48.763Z,13.40
2023-10-21T07:35:15.960Z,13.60
2023-10-21T07:37:46.057Z,13.70
2023-10-21T07:40:13.633Z,13.80
2023-10-21T07:42:40.631Z,14.00
2023-10-21T07:45:08.190Z,14.30
2023-10-21T07:47:37.633Z,14.60
2023-10-21T07:50:08.750Z,14.80
2023-10-21T07:52:37.801Z,15.00
2023-10-21T07:55:05.457Z,15.10
2023-10-21T07:57:32.897Z,15.20
2023-10-21T08:00:00.918Z,15.30
2023-10-21T08:02:28.556Z,15.40
2023-10-21T08:04:56.519Z,15.50
2023-10-21T08:07:23.446Z,15.60
2023-10-21T08:09:51.034Z,15.70
2023-10-21T08:12:18.153Z,15.80
2023-10-21T08:14:45.111Z,15.90
2023-10-21T08:17:11.953Z,16.00
2023-10-21T08:19:38.850Z,16.10
2023-10-21T08:22:07.026Z,16.10
2023-10-21T08:24:34.448Z,16.10
2023-10-21T08:27:02.248Z,16.10
2023-10-21T08:29:29.346Z,16.20
2023-10-21T08:31:56.222Z,16.30
2023-10-21T08:34:23.636Z,16.40
2023-10-21T08:36:50.867Z,16.50
2023-10-21T08:39:17.965Z,16.50
2023-10-21T08:41:45.027Z,16.70
2023-10-21T08:44:13.634Z,16.80
2023-10-21T08:46:42.533Z,16.80
2023-10-21T08:49:11.879Z,17.00
2023-10-21T08:51:39.134Z,17.00
2023-10-21T08:54:06.828Z,17.10
2023-10-21T08:56:34.612Z,17.20
2023-10-21T08:59:02.510Z,17.50
2023-10-21T09:01:29.814Z,17.80
2023-10-21T09:04:01.213Z,18.00
2023-10-21T09:06:28.456Z,18.20
2023-10-21T09:08:55.487Z,18.50
2023-10-21T09:11:28.024Z,18.80
2023-10-21T09:14:00.010Z,19.10
2023-10-21T09:16:31.022Z,19.30
2023-10-21T09:19:09.289Z,19.60
2023-10-21T09:21:42.775Z,19.70
2023-10-21T09:24:11.603Z,20.00
2023-10-21T09:26:41.312Z,20.30
2023-10-21T09:29:20.563Z,20.60
2023-10-21T09:31:55.688Z,20.90
2023-10-21T09:34:36.790Z,21.00
2023-10-21T09:37:06.141Z,21.20
2023-10-21T09:39:38.012Z,21.30
2023-10-21T09:42:06.955Z,21.30
2023-10-21T09:44:36.026Z,21.50
2023-10-21T09:47:07.661Z,21.60
2023-10-21T09:49:39.455Z,21.70
2023-10-21T09:52:16.714Z,22.00
2023-10-21T09:55:09.062Z,22.10
2023-10-21T09:57:44.737Z,22.00
2023-10-21T10:00:12.868Z,22.10
2023-10-21T10:02:41.416Z,22.30
2023-10-21T10:05:09.310Z,22.40
2023-10-21T10:07:41.017Z,22.20
2023-10-21T10:10:13.890Z,22.10
2023-10-21T10:12:55.732Z,22.30
2023-10-21T10:15:35.498Z,22.60
2023-10-21T10:18:09.940Z,22.90
2023-10-21T10:20:47.293Z,22.90
2023-10-21T10:23:14.180Z,22.90
2023-10-21T10:25:47.481Z,22.80
2023-10-21T10:28:27.572Z,22.80
2023-10-21T10:30:57.593Z,22.90
2023-10-21T10:33:29.306Z,23.10
2023-10-21T10:36:01.981Z,23.20
2023-10-21T10:38:37.748Z,23.30
2023-10-21T10:41:16.153Z,23.60
2023-10-21T10:43:47.495Z,23.50
2023-10-21T10:46:19.173Z,23.60
2023-10-21T10:48:47.661Z,23.60
2023-10-21T10:51:18.677Z,23.70
2023-10-21T10:53:48.390Z,23.10
2023-10-21T10:56:22.902Z,23.50
2023-10-21T10:58:51.223Z,23.60
2023-10-21T11:01:29.174Z,23.30
2023-10-21T11:03:57.726Z,23.60
2023-10-21T11:06:30.063Z,23.70
2023-10-21T11:08:58.156Z,23.70
2023-10-21T11:11:25.203Z,23.70
2023-10-21T11:13:52.111Z,23.90
2023-10-21T11:16:19.399Z,24.10
2023-10-21T11:18:46.277Z,24.10
2023-10-21T11:21:13.310Z,23.90
2023-10-21T11:23:40.579Z,23.90
2023-10-21T11:26:11.049Z,23.90
2023-10-21T11:28:39.192Z,24.10
2023-10-21T11:31:09.484Z,24.20
2023-10-21T11:33:36.652Z,24.40
2023-10-21T11:36:04.711Z,24.60
2023-10-21T11:38:31.755Z,24.40
2023-10-21T11:41:00.587Z,24.20
2023-10-21T11:43:28.982Z,24.40
2023-10-21T11:45:56.914Z,24.50
2023-10-21T11:48:25.593Z,24.40
2023-10-21T11:50:52.874Z,24.30
2023-10-21T11:53:20.446Z,24.30
2023-10-21T11:55:49.966Z,24.50
2023-10-21T11:58:44.370Z,24.80
2023-10-21T12:01:31.245Z,25.10
2023-10-21T12:04:21.753Z,25.30
2023-10-21T12:07:11.235Z,25.70
2023-10-21T12:09:56.440Z,26.00
2023-10-21T12:12:38.515Z,26.20
2023-10-21T12:15:24.565Z,26.00
2023-10-21T12:17:51.399Z,26.00
2023-10-21T12:20:19.476Z,25.80
2023-10-21T12:23:04.463Z,25.80
2023-10-21T12:25:38.504Z,26.10
2023-10-21T12:28:11.519Z,26.10
2023-10-21T12:30:56.316Z,26.00
2023-10-21T12:33:42.545Z,26.00
2023-10-21T12:36:27.669Z,26.00
2023-10-21T12:38:57.692Z,26.20
2023-10-21T12:41:28.365Z,26.10
2023-10-21T12:44:01.752Z,25.90
2023-10-21T12:46:32.469Z,25.80
2023-10-21T12:49:14.389Z,26.00
2023-10-21T12:51:48.391Z,26.10
2023-10-21T12:54:15.701Z,26.20
2023-10-21T12:56:42.684Z,26.20
2023-10-21T12:59:09.473Z,26.30
2023-10-21T13:01:39.483Z,26.50
2023-10-21T13:04:06.953Z,26.30
2023-10-21T13:06:34.624Z,26.30
2023-10-21T13:09:01.767Z,26.40
2023-10-21T13:11:29.008Z,26.50
2023-10-21T13:13:56.303Z,26.20
2023-10-21T13:16:24.088Z,25.70
2023-10-21T13:18:51.007Z,25.60
2023-10-21T13:21:20.137Z,25.40
2023-10-21T13:23:47.050Z,25.10
2023-10-21T13:26:13.918Z,24.70
2023-10-21T13:28:40.788Z,24.30
2023-10-21T13:31:07.850Z,24.10
2023-10-21T13:33:35.305Z,24.10
2023-10-21T13:36:02.228Z,24.10
2023-10-21T13:38:29.177Z,24.00
2023-10-21T13:40:55.980Z,23.90
2023-10-21T13:43:22.932Z,24.00
2023-10-21T13:45:51.641Z,24.10
2023-10-21T13:48:18.521Z,24.20
2023-10-21T13:50:47.361Z,24.30
2023-10-21T13:53:16.136Z,24.50
2023-10-21T13:55:46.344Z,24.50
2023-10-21T13:58:16.503Z,24.40
2023-10-21T14:00:43.697Z,24.40
2023-10-21T14:03:16.991Z,24.30
2023-10-21T14:05:46.118Z,24.20
2023-10-21T14:08:15.987Z,24.00
2023-10-21T14:10:48.766Z,24.00
2023-10-21T14:13:25.361Z,24.30
2023-10-21T14:15:55.313Z,24.30
2023-10-21T14:18:26.392Z,24.40
2023-10-21T14:20:54.801Z,24.30
2023-10-21T14:23:24.736Z,24.20
2023-10-21T14:25:54.697Z,24.10
2023-10-21T14:28:22.533Z,24.00
2023-10-21T14:30:54.055Z,23.80
2023-10-21T14:33:29.836Z,23.60
2023-10-21T14:35:59.004Z,23.40
2023-10-21T14:38:29.906Z,23.20
2023-10-21T14:40:56.862Z,23.00
2023-10-21T14:43:26.177Z,22.80
2023-10-21T14:45:53.622Z,22.80
2023-10-21T14:48:20.738Z,22.70
2023-10-21T14:50:52.442Z,22.60
2023-10-21T14:53:19.569Z,22.40
2023-10-21T14:58:18.098Z,22.20
2023-10-21T15:00:45.554Z,22.00
2023-10-21T15:03:18.135Z,21.80
2023-10-21T15:05:45.434Z,21.60
2023-10-21T15:08:12.293Z,21.50
2023-10-21T15:10:40.114Z,21.30
2023-10-21T15:13:09.760Z,21.20
2023-10-21T15:15:36.594Z,21.10
2023-10-21T15:18:04.562Z,20.90
2023-10-21T15:20:31.961Z,20.80
2023-10-21T15:23:00.426Z,20.70
2023-10-21T15:25:27.357Z,20.60
2023-10-21T15:27:54.347Z,20.40
2023-10-21T15:30:23.195Z,20.30
2023-10-21T15:32:51.610Z,20.20
2023-10-21T15:35:20.057Z,20.10
2023-10-21T15:37:48.337Z,20.00
2023-10-21T15:40:17.772Z,19.90
2023-10-21T15:42:45.531Z,19.80
2023-10-21T15:45:14.596Z,19.70
2023-10-21T15:47:42.390Z,19.60
2023-10-21T15:50:11.012Z,19.50
2023-10-21T15:52:38.089Z,19.40
2023-10-21T15:55:05.641Z,19.30
2023-10-21T15:57:36.666Z,19.10
2023-10-21T16:00:18.036Z,19.00
2023-10-21T16:02:48.798Z,18.90
2023-10-21T16:05:16.565Z,18.80
2023-10-21T16:07:57.317Z,18.70
2023-10-21T16:10:25.407Z,18.60
2023-10-21T16:12:52.238Z,18.50
2023-10-21T16:15:19.186Z,18.40
2023-10-21T16:17:47.459Z,18.40
2023-10-21T16:20:15.195Z,18.30
2023-10-21T16:22:42.174Z,18.30
2023-10-21T16:25:10.549Z,18.20
2023-10-21T16:27:39.292Z,18.10
2023-10-21T16:30:08.648Z,18.10
2023-10-21T16:32:35.493Z,18.00
2023-10-21T16:35:02.323Z,17.90
2023-10-21T16:37:29.308Z,17.80
2023-10-21T16:39:57.124Z,17.70
2023-10-21T16:42:24.913Z,17.60
2023-10-21T16:44:52.976Z,17.50
2023-10-21T16:47:19.954Z,17.40
2023-10-21T16:49:46.814Z,17.30
2023-10-21T16:52:13.618Z,17.20
2023-10-21T16:54:42.166Z,17.10
2023-10-21T16:57:10.878Z,17.10
2023-10-21T16:59:38.365Z,17.00
2023-10-21T17:02:05.409Z,16.90
2023-10-21T17:04:32.718Z,16.80
2023-10-21T17:06:59.846Z,16.70
2023-10-21T17:09:26.675Z,16.70
2023-10-21T17:11:53.530Z,16.60
2023-10-21T17:14:20.405Z,16.70
2023-10-21T17:16:47.613Z,16.70
2023-10-21T17:19:14.463Z,16.70
2023-10-21T17:21:41.360Z,16.60
2023-10-21T17:24:08.651Z,16.60
2023-10-21T17:26:35.511Z,16.60
2023-10-21T17:29:02.285Z,16.50
2023-10-21T17:31:29.137Z,16.50
2023-10-21T17:33:56.056Z,16.50
2023-10-21T17:36:22.898Z,16.50
2023-10-21T17:38:49.743Z,16.50
2023-10-21T17:41:16.682Z,16.50
2023-10-21T17:43:43.507Z,16.50
2023-10-21T17:46:10.770Z,16.50
2023-10-21T17:48:37.684Z,16.40
2023-10-21T17:51:06.318Z,16.30
2023-10-21T17:53:33.202Z,16.20
2023-10-21T17:56:00.267Z,16.20
2023-10-21T17:58:27.120Z,16.30
2023-10-21T18:00:54.318Z,16.30
2023-10-21T18:03:21.780Z,16.20
2023-10-21T18:05:48.678Z,16.20
2023-10-21T18:08:15.523Z,16.20
2023-10-21T18:10:42.400Z,15.90
2023-10-21T18:13:09.267Z,15.90
2023-10-21T18:15:36.319Z,16.00
2023-10-21T18:18:03.690Z,16.00
2023-10-21T18:20:30.782Z,16.10
2023-10-21T18:22:58.843Z,16.10
2023-10-21T18:25:26.160Z,16.00
2023-10-21T18:27:55.995Z,16.00
2023-10-21T18:30:24.243Z,16.00
2023-10-21T18:32:51.203Z,15.90
2023-10-21T18:35:18.096Z,15.90
2023-10-21T18:37:44.876Z,15.90
2023-10-21T18:40:11.921Z,16.00
2023-10-21T18:42:39.665Z,16.00
2023-10-21T18:45:07.459Z,16.00
2023-10-21T18:47:34.304Z,15.90
2023-10-21T18:50:01.239Z,15.80
2023-10-21T18:52:28.157Z,15.80
2023-10-21T18:54:55.588Z,15.70
2023-10-21T18:57:24.855Z,15.70
2023-10-21T18:59:54.652Z,15.60
2023-10-21T19:02:22.047Z,15.60
2023-10-21T19:04:49.148Z,15.50
2023-10-21T19:07:16.142Z,15.50
2023-10-21T19:09:43.757Z,15.40
2023-10-21T19:12:10.726Z,15.40
2023-10-21T19:14:37.716Z,15.30
2023-10-21T19:17:06.037Z,15.20
2023-10-21T19:19:34.948Z,15.10
2023-10-21T19:22:02.065Z,14.90
2023-10-21T19:24:28.983Z,14.90
2023-10-21T19:26:55.903Z,14.90
2023-10-21T19:29:22.869Z,14.90
2023-10-21T19:31:51.057Z,14.90
2023-10-21T19:34:18.167Z,14.80
2023-10-21T19:36:45.535Z,14.70
2023-10-21T19:39:12.559Z,14.60
2023-10-21T19:41:41.032Z,14.60
2023-10-21T19:44:19.091Z,14.60
2023-10-21T19:46:52.540Z,14.60
2023-10-21T19:49:20.140Z,14.70
2023-10-21T19:51:47.108Z,14.60
2023-10-21T19:54:14.865Z,14.60
2023-10-21T19:56:42.069Z,14.60
2023-10-21T19:59:09.121Z,14.30
2023-10-21T20:01:36.325Z,14.20
2023-10-21T20:04:03.309Z,14.20
2023-10-21T20:06:31.587Z,14.20
2023-10-21T20:08:58.516Z,14.20
2023-10-21T20:11:25.325Z,14.30
2023-10-21T20:13:52.233Z,14.30
2023-10-21T20:16:19.847Z,14.20
2023-10-21T20:18:46.976Z,14.20
2023-10-21T20:21:15.841Z,14.10
2023-10-21T20:23:42.966Z,14.10
2023-10-21T20:26:15.027Z,14.00
2023-10-21T20:28:43.656Z,14.00
2023-10-21T20:31:11.357Z,14.00
2023-10-21T20:33:38.971Z,13.90
2023-10-21T20:36:07.630Z,13.60
2023-10-21T20:38:34.852Z,13.70
2023-10-21T20:41:13.255Z,13.90
2023-10-21T20:43:43.218Z,13.90
2023-10-21T20:46:11.179Z,14.00
2023-10-21T20:48:39.689Z,14.00
2023-10-21T20:51:08.128Z,14.00
2023-10-21T20:53:35.151Z,14.10
2023-10-21T20:56:02.287Z,14.00
2023-10-21T20:58:29.262Z,14.00
2023-10-21T21:00:56.247Z,14.00
2023-10-21T21:03:24.529Z,14.00
2023-10-21T21:05:52.312Z,14.00
2023-10-21T21:08:19.681Z,14.00
2023-10-21T21:10:46.581Z,14.10
2023-10-21T21:13:13.418Z,14.10
2023-10-21T21:15:40.282Z,14.10
2023-10-21T21:18:07.226Z,14.10
2023-10-21T21:20:34.143Z,14.00
2023-10-21T21:23:01.154Z,14.00
2023-10-21T21:25:27.987Z,14.00
2023-10-21T21:27:54.914Z,14.00
2023-10-21T21:30:21.915Z,14.00
2023-10-21T21:32:49.723Z,14.00
2023-10-21T21:35:17.475Z,13.90
2023-10-21T21:37:44.380Z,14.00
2023-10-21T21:40:11.687Z,13.90
2023-10-21T21:42:38.859Z,13.90
2023-10-21T21:45:07.309Z,13.90
2023-10-21T21:47:36.760Z,13.80
2023-10-21T21:50:05.807Z,13.80
2023-10-21T21:52:33.379Z,13.80
2023-10-21T21:55:00.370Z,13.80
2023-10-21T21:57:27.363Z,13.70
2023-10-21T21:59:54.253Z,13.60
2023-10-21T22:02:21.807Z,13.50
2023-10-21T22:04:48.950Z,13.50
2023-10-21T22:07:20.388Z,13.60
2023-10-21T22:09:47.372Z,13.60
2023-10-21T22:12:14.215Z,13.50
2023-10-21T22:14:41.110Z,13.10
2023-10-21T22:17:09.515Z,13.10
2023-10-21T22:19:37.357Z,13.00
2023-10-21T22:22:07.156Z,13.20
2023-10-21T22:24:38.067Z,13.10
2023-10-21T22:27:13.126Z,13.20
2023-10-21T22:29:42.838Z,13.30
2023-10-21T22:32:10.168Z,13.30
2023-10-21T22:34:37.881Z,13.30
2023-10-21T22:37:05.172Z,13.40
2023-10-21T22:39:33.224Z,13.40
2023-10-21T22:42:00.670Z,13.40
2023-10-21T22:44:27.575Z,13.40
2023-10-21T22:46:54.533Z,13.40
2023-10-21T22:49:21.413Z,13.40
2023-10-21T22:51:48.203Z,13.40
2023-10-21T22:54:15.033Z,13.40
2023-10-21T22:56:42.046Z,13.30
2023-10-21T22:59:09.174Z,13.30
2023-10-21T23:01:36.969Z,13.30
2023-10-21T23:04:04.024Z,13.20
2023-10-21T23:06:31.008Z,13.10
2023-10-21T23:08:58.211Z,12.90
2023-10-21T23:11:25.407Z,12.90
2023-10-21T23:13:52.927Z,12.70
2023-10-21T23:16:21.118Z,12.80
2023-10-21T23:18:48.463Z,12.90
2023-10-21T23:21:15.714Z,13.00
2023-10-21T23:23:42.867Z,13.00
2023-10-21T23:26:12.170Z,12.90
2023-10-21T23:28:40.060Z,12.80
2023-10-21T23:31:07.351Z,12.80
2023-10-21T23:33:34.418Z,12.80
2023-10-21T23:36:04.338Z,12.80
2023-10-21T23:38:31.550Z,12.70
2023-10-21T23:40:58.438Z,12.60
2023-10-21T23:43:25.293Z,12.50
2023-10-21T23:45:52.890Z,12.50
2023-10-21T23:48:19.985Z,12.60
2023-10-21T23:50:46.938Z,12.50
2023-10-21T23:53:13.987Z,12.60
2023-10-21T23:55:40.774Z,12.60
2023-10-21T23:58:07.679Z,12.60
